createdAt,value
2018-07-07T00:00:34.345Z,3.80
2018-07-07T00:03:03.214Z,4.03
2018-07-07T00:05:32.578Z,3.60
2018-07-07T00:08:01.409Z,3.42
2018-07-07T00:10:29.897Z,3.50
2018-07-07T00:12:59.068Z,2.92
2018-07-07T00:15:28.110Z,4.25
2018-07-07T00:17:56.613Z,4.10
2018-07-07T00:20:25.791Z,2.98
2018-07-07T00:22:54.296Z,4.10
2018-07-07T00:25:23.775Z,3.42
2018-07-07T00:27:52.641Z,3.60
2018-07-07T00:30:21.461Z,3.87
2018-07-07T00:32:50.312Z,3.30
2018-07-07T00:35:19.926Z,3.67
2018-07-07T00:37:48.805Z,3.37
2018-07-07T00:40:17.978Z,4.22
2018-07-07T00:42:46.841Z,3.17
2018-07-07T00:45:18.529Z,3.40
2018-07-07T00:47:47.045Z,3.90
2018-07-07T00:50:16.505Z,3.27
2018-07-07T00:52:45.321Z,3.37
2018-07-07T00:55:14.150Z,3.35
2018-07-07T00:57:43.326Z,3.02
2018-07-07T01:00:12.461Z,3.25
2018-07-07T01:02:41.698Z,3.10
2018-07-07T01:05:20.756Z,3.42
2018-07-07T01:07:49.933Z,3.30
2018-07-07T01:10:18.525Z,3.42
2018-07-07T01:12:48.313Z,2.83
2018-07-07T01:15:17.035Z,3.45
2018-07-07T01:17:45.883Z,3.55
2018-07-07T01:20:14.738Z,3.27
2018-07-07T01:22:44.157Z,3.10
2018-07-07T01:25:13.065Z,3.08
2018-07-07T01:27:42.673Z,2.55
2018-07-07T01:30:11.210Z,3.00
2018-07-07T01:32:40.089Z,2.65
2018-07-07T01:35:09.607Z,3.05
2018-07-07T01:37:40.054Z,2.95
2018-07-07T01:40:08.709Z,2.45
2018-07-07T01:42:38.329Z,2.85
2018-07-07T01:45:07.217Z,2.90
2018-07-07T01:47:37.080Z,2.98
2018-07-07T01:50:05.594Z,3.35
2018-07-07T01:52:34.457Z,3.10
2018-07-07T01:55:03.010Z,3.02
2018-07-07T01:57:31.848Z,2.55
2018-07-07T02:00:00.672Z,3.60
2018-07-07T02:02:29.751Z,2.95
2018-07-07T02:04:58.262Z,3.20
2018-07-07T02:07:27.105Z,2.80
2018-07-07T02:09:56.287Z,2.90
2018-07-07T02:12:28.263Z,2.27
2018-07-07T02:14:56.774Z,2.90
2018-07-07T02:17:25.308Z,2.10
2018-07-07T02:19:54.127Z,2.52
2018-07-07T02:22:24.514Z,2.40
2018-07-07T02:24:54.365Z,2.70
2018-07-07T02:27:24.165Z,2.22
2018-07-07T02:29:53.686Z,1.98
2018-07-07T02:32:22.809Z,2.50
2018-07-07T02:34:51.363Z,1.92
2018-07-07T02:37:20.202Z,2.95
2018-07-07T02:39:48.713Z,4.50
2018-07-07T02:42:17.604Z,2.37
2018-07-07T02:44:46.129Z,3.45
2018-07-07T02:47:15.205Z,3.10
2018-07-07T02:49:44.419Z,2.60
2018-07-07T02:52:14.372Z,2.42
2018-07-07T02:54:43.315Z,2.10
2018-07-07T02:57:12.802Z,2.25
2018-07-07T02:59:41.957Z,3.00
2018-07-07T03:02:10.476Z,2.33
2018-07-07T03:04:39.590Z,2.58
2018-07-07T03:07:08.470Z,2.25
2018-07-07T03:09:37.875Z,2.00
2018-07-07T03:12:06.593Z,2.33
2018-07-07T03:14:36.304Z,2.42
2018-07-07T03:17:05.179Z,2.27
2018-07-07T03:19:33.704Z,2.15
2018-07-07T03:22:02.217Z,2.22
2018-07-07T03:24:32.874Z,2.00
2018-07-07T03:27:02.379Z,1.55
2018-07-07T03:29:31.200Z,1.90
2018-07-07T03:32:01.140Z,1.95
2018-07-07T03:34:29.669Z,1.80
2018-07-07T03:36:58.280Z,2.00
2018-07-07T03:39:26.876Z,2.02
2018-07-07T03:41:55.743Z,1.98
2018-07-07T03:44:24.955Z,1.90
2018-07-07T03:46:53.816Z,2.40
2018-07-07T03:49:22.733Z,1.95
2018-07-07T03:51:51.377Z,1.57
2018-07-07T03:54:19.898Z,1.62
2018-07-07T03:56:48.774Z,1.70
2018-07-07T03:59:17.957Z,2.35
2018-07-07T04:01:46.838Z,1.90
2018-07-07T04:04:15.353Z,1.95
2018-07-07T04:06:44.826Z,2.37
2018-07-07T04:09:14.326Z,1.80
2018-07-07T04:11:44.128Z,1.90
2018-07-07T04:14:12.973Z,2.05
2018-07-07T04:16:43.253Z,1.72
2018-07-07T04:19:12.633Z,2.02
2018-07-07T04:21:41.189Z,1.95
2018-07-07T04:24:09.685Z,1.25
2018-07-07T04:26:38.166Z,1.32
2018-07-07T04:29:06.690Z,1.92
2018-07-07T04:31:35.533Z,1.57
2018-07-07T04:34:05.096Z,1.82
2018-07-07T04:36:34.722Z,1.70
2018-07-07T04:39:04.797Z,1.95
2018-07-07T04:41:33.717Z,2.47
2018-07-07T04:44:02.828Z,2.40
2018-07-07T04:46:31.641Z,1.55
2018-07-07T04:49:00.481Z,1.75
2018-07-07T04:51:59.930Z,1.57
2018-07-07T04:54:28.753Z,1.90
2018-07-07T04:56:57.262Z,1.80
2018-07-07T04:59:27.486Z,1.20
2018-07-07T05:01:58.644Z,1.55
2018-07-07T05:04:27.198Z,2.00
2018-07-07T05:06:57.477Z,2.17
2018-07-07T05:09:26.354Z,2.30
2018-07-07T05:11:56.517Z,2.17
2018-07-07T05:14:25.368Z,1.65
2018-07-07T05:16:54.562Z,2.40
2018-07-07T05:19:23.923Z,1.95
2018-07-07T05:21:57.161Z,1.82
2018-07-07T05:24:26.025Z,2.10
2018-07-07T05:26:54.537Z,2.08
2018-07-07T05:29:23.057Z,2.25
2018-07-07T05:31:51.719Z,1.95
2018-07-07T05:34:20.893Z,1.82
2018-07-07T05:36:49.778Z,2.25
2018-07-07T05:39:18.678Z,1.85
2018-07-07T05:41:47.516Z,3.02
2018-07-07T05:44:18.707Z,2.08
2018-07-07T05:46:47.239Z,2.12
2018-07-07T05:49:16.062Z,2.25
2018-07-07T05:51:44.970Z,2.67
2018-07-07T05:54:13.842Z,2.65
2018-07-07T05:56:46.277Z,2.55
2018-07-07T05:59:15.134Z,2.30
2018-07-07T06:01:44.830Z,2.50
2018-07-07T06:04:14.473Z,2.35
2018-07-07T06:06:44.386Z,2.67
2018-07-07T06:09:13.476Z,3.12
2018-07-07T06:11:42.726Z,2.50
2018-07-07T06:14:11.848Z,2.65
2018-07-07T06:16:41.384Z,2.92
2018-07-07T06:19:10.878Z,3.00
2018-07-07T06:21:39.802Z,3.27
2018-07-07T06:24:08.826Z,2.10
2018-07-07T06:26:38.996Z,2.77
2018-07-07T06:29:08.320Z,3.35
2018-07-07T06:31:38.057Z,2.58
2018-07-07T06:34:07.230Z,3.20
2018-07-07T06:36:35.771Z,3.42
2018-07-07T06:39:04.855Z,2.98
2018-07-07T06:41:34.761Z,2.92
2018-07-07T06:44:03.813Z,3.72
2018-07-07T06:46:35.612Z,2.90
2018-07-07T06:49:04.155Z,2.77
2018-07-07T06:51:35.820Z,3.60
2018-07-07T06:54:05.165Z,2.65
2018-07-07T06:56:34.191Z,3.25
2018-07-07T06:59:03.002Z,2.37
2018-07-07T07:01:31.842Z,3.40
2018-07-07T07:04:02.406Z,2.15
2018-07-07T07:06:31.909Z,2.35
2018-07-07T07:09:00.538Z,2.65
2018-07-07T07:11:29.034Z,2.55
2018-07-07T07:14:28.475Z,3.58
2018-07-07T07:16:57.321Z,3.00
2018-07-07T07:19:25.815Z,3.75
2018-07-07T07:21:56.471Z,2.50
2018-07-07T07:24:25.042Z,2.85
2018-07-07T07:26:55.790Z,2.85
2018-07-07T07:29:24.626Z,2.30
2018-07-07T07:31:53.469Z,2.45
2018-07-07T07:34:22.336Z,2.70
2018-07-07T07:36:52.139Z,2.47
2018-07-07T07:39:22.333Z,2.80
2018-07-07T07:41:51.215Z,3.08
2018-07-07T07:44:20.073Z,2.80
2018-07-07T07:46:50.525Z,2.50
2018-07-07T07:49:19.384Z,3.62
2018-07-07T07:51:49.660Z,2.40
2018-07-07T07:54:18.495Z,2.52
2018-07-07T07:56:47.059Z,2.55
2018-07-07T07:59:18.206Z,2.72
2018-07-07T08:01:47.711Z,3.45
2018-07-07T08:04:16.482Z,2.37
2018-07-07T08:06:45.583Z,2.05
2018-07-07T08:09:14.953Z,2.15
2018-07-07T08:11:43.437Z,1.85
2018-07-07T08:14:12.662Z,2.40
2018-07-07T08:16:41.640Z,2.60
2018-07-07T08:19:10.154Z,2.90
2018-07-07T08:21:39.039Z,1.90
2018-07-07T08:24:07.587Z,1.90
2018-07-07T08:26:36.467Z,2.67
2018-07-07T08:29:05.316Z,2.02
2018-07-07T08:31:33.825Z,2.15
2018-07-07T08:34:02.702Z,2.50
2018-07-07T08:36:31.950Z,2.17
2018-07-07T08:39:07.665Z,1.52
2018-07-07T08:41:36.189Z,1.80
2018-07-07T08:44:04.726Z,2.00
2018-07-07T08:46:33.884Z,2.20
2018-07-07T08:49:02.896Z,2.50
2018-07-07T08:51:32.334Z,2.25
2018-07-07T08:54:00.877Z,2.00
2018-07-07T08:56:29.753Z,1.70
2018-07-07T08:58:58.617Z,2.45
2018-07-07T09:01:27.485Z,2.33
2018-07-07T09:03:56.691Z,2.08
2018-07-07T09:06:25.539Z,2.20
2018-07-07T09:08:54.726Z,1.90
2018-07-07T09:11:23.237Z,2.00
2018-07-07T09:13:52.569Z,2.35
2018-07-07T09:16:21.809Z,1.70
2018-07-07T09:18:51.590Z,1.70
2018-07-07T09:21:20.761Z,1.52
2018-07-07T09:23:49.390Z,1.40
2018-07-07T09:26:18.255Z,1.50
2018-07-07T09:28:47.142Z,3.30
2018-07-07T09:31:16.001Z,1.98
2018-07-07T09:33:44.864Z,0.90
2018-07-07T09:36:13.731Z,1.35
2018-07-07T09:38:42.664Z,2.15
2018-07-07T09:41:11.650Z,2.67
2018-07-07T09:43:40.193Z,1.30
2018-07-07T09:46:08.726Z,1.47
2018-07-07T09:48:37.256Z,1.65
2018-07-07T09:51:06.779Z,1.80
2018-07-07T09:53:35.285Z,1.40
2018-07-07T09:56:04.141Z,1.27
2018-07-07T09:58:33.634Z,2.02
2018-07-07T10:01:02.810Z,2.08
2018-07-07T10:03:31.738Z,1.10
2018-07-07T10:06:01.985Z,1.52
2018-07-07T10:08:30.501Z,1.60
2018-07-07T10:11:00.009Z,1.35
2018-07-07T10:13:29.533Z,1.27
2018-07-07T10:15:59.693Z,1.07
2018-07-07T10:18:28.611Z,2.10
2018-07-07T10:20:58.028Z,1.03
2018-07-07T10:23:27.229Z,1.32
2018-07-07T10:25:56.593Z,1.50
2018-07-07T10:28:25.117Z,1.45
2018-07-07T10:30:53.419Z,1.10
2018-07-07T10:33:21.670Z,1.07
2018-07-07T10:35:50.235Z,1.43
2018-07-07T10:38:49.388Z,1.50
2018-07-07T10:41:18.092Z,1.60
2018-07-07T10:43:46.704Z,1.40
2018-07-07T10:46:15.314Z,1.10
2018-07-07T10:48:43.899Z,0.90
2018-07-07T10:51:12.453Z,1.53
2018-07-07T10:53:41.548Z,1.35
2018-07-07T10:56:10.997Z,1.40
2018-07-07T10:58:39.650Z,1.67
2018-07-07T11:01:08.273Z,1.30
2018-07-07T11:03:36.874Z,1.20
2018-07-07T11:06:05.144Z,0.80
2018-07-07T11:08:33.500Z,1.03
2018-07-07T11:11:02.067Z,1.00
2018-07-07T11:13:30.623Z,1.10
2018-07-07T11:15:59.084Z,1.13
2018-07-07T11:18:27.695Z,1.20
2018-07-07T11:20:56.958Z,1.10
2018-07-07T11:23:25.580Z,1.50
2018-07-07T11:25:54.172Z,1.13
2018-07-07T11:28:22.488Z,1.07
2018-07-07T11:30:50.888Z,1.70
2018-07-07T11:33:19.330Z,1.00
2018-07-07T11:35:48.445Z,1.00
2018-07-07T11:38:16.759Z,1.13
2018-07-07T11:40:45.050Z,1.77
2018-07-07T11:43:13.289Z,1.20
2018-07-07T11:45:41.918Z,1.53
2018-07-07T11:48:10.165Z,1.20
2018-07-07T11:50:38.780Z,0.80
2018-07-07T11:53:08.320Z,0.80
2018-07-07T11:55:36.556Z,1.07
2018-07-07T11:58:04.834Z,1.00
2018-07-07T12:00:33.451Z,1.13
2018-07-07T12:03:02.350Z,1.10
2018-07-07T12:05:30.985Z,1.20
2018-07-07T12:10:28.477Z,1.30
2018-07-07T12:12:57.053Z,1.33
2018-07-07T12:15:25.645Z,1.00
2018-07-07T12:17:55.085Z,1.40
2018-07-07T12:20:24.003Z,1.27
2018-07-07T12:22:53.246Z,1.43
2018-07-07T12:25:21.849Z,1.10
2018-07-07T12:27:51.073Z,1.37
2018-07-07T12:30:19.781Z,1.27
2018-07-07T12:32:48.881Z,1.37
2018-07-07T12:35:17.459Z,2.03
2018-07-07T12:37:46.050Z,2.03
2018-07-07T12:40:14.700Z,1.30
2018-07-07T12:42:43.323Z,1.13
2018-07-07T12:45:11.560Z,1.30
2018-07-07T12:47:39.780Z,1.10
2018-07-07T12:50:08.006Z,1.23
2018-07-07T12:52:37.317Z,0.80
2018-07-07T12:55:05.887Z,1.10
2018-07-07T12:57:34.750Z,1.27
2018-07-07T13:00:03.149Z,1.33
2018-07-07T13:02:32.322Z,1.80
2018-07-07T13:05:00.984Z,1.10
2018-07-07T13:07:29.601Z,2.00
2018-07-07T13:09:58.377Z,1.00
2018-07-07T13:12:26.609Z,1.03
2018-07-07T13:14:55.438Z,1.00
2018-07-07T13:17:24.475Z,0.80
2018-07-07T13:19:53.942Z,1.83
2018-07-07T13:22:22.934Z,1.10
2018-07-07T13:24:52.064Z,1.13
2018-07-07T13:27:21.212Z,1.20
2018-07-07T13:29:49.492Z,1.20
2018-07-07T13:32:18.091Z,1.40
2018-07-07T13:34:46.679Z,1.33
2018-07-07T13:37:15.284Z,1.27
2018-07-07T13:39:43.672Z,1.20
2018-07-07T13:42:13.501Z,1.40
2018-07-07T13:44:42.806Z,1.10
2018-07-07T13:47:11.740Z,1.27
2018-07-07T13:49:40.303Z,1.40
2018-07-07T13:52:08.903Z,0.90
2018-07-07T13:54:37.477Z,1.00
2018-07-07T13:57:05.742Z,0.87
2018-07-07T13:59:33.961Z,1.10
2018-07-07T14:02:02.934Z,1.17
2018-07-07T14:04:31.230Z,1.13
2018-07-07T14:06:59.781Z,1.10
2018-07-07T14:09:28.378Z,1.20
2018-07-07T14:11:57.107Z,3.00
2018-07-07T14:14:25.994Z,1.13
2018-07-07T14:16:54.965Z,0.83
2018-07-07T14:19:23.702Z,1.10
2018-07-07T14:21:52.279Z,1.30
2018-07-07T14:24:20.862Z,1.40
2018-07-07T14:26:49.097Z,1.50
2018-07-07T14:29:17.670Z,1.23
2018-07-07T14:31:46.258Z,2.60
2018-07-07T14:34:15.037Z,1.33
2018-07-07T14:36:44.018Z,1.63
2018-07-07T14:39:12.270Z,1.07
2018-07-07T14:41:40.554Z,1.57
2018-07-07T14:44:13.685Z,1.83
2018-07-07T14:46:41.942Z,1.60
2018-07-07T14:49:10.534Z,1.53
2018-07-07T14:51:39.125Z,2.60
2018-07-07T14:54:08.134Z,5.17
2018-07-07T14:56:37.127Z,14.40
2018-07-07T14:59:05.551Z,21.40
2018-07-07T15:01:33.832Z,20.73
2018-07-07T15:04:02.685Z,23.87
2018-07-07T15:06:31.393Z,41.87
2018-07-07T15:08:59.884Z,41.77
2018-07-07T15:11:29.120Z,29.63
2018-07-07T15:13:57.789Z,15.47
2018-07-07T15:16:26.403Z,15.60
2018-07-07T15:18:55.609Z,28.17
2018-07-07T15:21:24.194Z,28.87
2018-07-07T15:23:53.365Z,28.57
2018-07-07T15:26:22.349Z,26.13
2018-07-07T15:28:51.073Z,31.97
2018-07-07T15:31:19.681Z,29.43
2018-07-07T15:33:49.753Z,22.33
2018-07-07T15:36:17.989Z,9.10
2018-07-07T15:38:47.044Z,4.70
2018-07-07T15:41:15.681Z,2.60
2018-07-07T15:43:44.581Z,2.13
2018-07-07T15:46:13.537Z,2.00
2018-07-07T15:48:42.680Z,2.20
2018-07-07T15:51:13.430Z,2.03
2018-07-07T15:53:42.349Z,1.87
2018-07-07T15:56:10.937Z,1.63
2018-07-07T15:58:39.808Z,2.57
2018-07-07T16:01:09.161Z,1.30
2018-07-07T16:03:39.284Z,1.90
2018-07-07T16:06:09.543Z,1.80
2018-07-07T16:08:38.189Z,2.43
2018-07-07T16:11:07.193Z,1.73
2018-07-07T16:13:35.510Z,1.57
2018-07-07T16:16:07.187Z,1.67
2018-07-07T16:18:36.117Z,2.13
2018-07-07T16:21:05.041Z,4.10
2018-07-07T16:23:33.627Z,1.50
2018-07-07T16:26:02.348Z,2.03
2018-07-07T16:28:31.682Z,1.97
2018-07-07T16:31:00.399Z,1.60
2018-07-07T16:33:28.994Z,1.60
2018-07-07T16:35:57.233Z,1.80
2018-07-07T16:38:26.123Z,2.40
2018-07-07T16:40:54.372Z,2.20
2018-07-07T16:43:23.576Z,2.27
2018-07-07T16:45:51.864Z,1.93
2018-07-07T16:48:20.129Z,1.80
2018-07-07T16:50:48.978Z,2.10
2018-07-07T16:53:17.567Z,2.00
2018-07-07T16:55:47.293Z,2.10
2018-07-07T16:58:16.706Z,2.03
2018-07-07T17:00:46.015Z,1.50
2018-07-07T17:03:14.602Z,1.50
2018-07-07T17:05:43.139Z,1.40
2018-07-07T17:08:13.597Z,1.20
2018-07-07T17:10:42.178Z,1.73
2018-07-07T17:13:18.598Z,1.80
2018-07-07T17:15:46.915Z,1.70
2018-07-07T17:18:17.412Z,1.83
2018-07-07T17:20:46.985Z,2.27
2018-07-07T17:23:15.978Z,3.50
2018-07-07T17:25:46.145Z,3.57
2018-07-07T17:28:14.745Z,4.10
2018-07-07T17:30:43.467Z,4.37
2018-07-07T17:33:11.690Z,4.97
2018-07-07T17:35:39.925Z,4.13
2018-07-07T17:38:08.173Z,5.03
2018-07-07T17:40:38.095Z,5.60
2018-07-07T17:43:07.031Z,4.87
2018-07-07T17:45:35.447Z,5.53
2018-07-07T17:48:03.984Z,4.30
2018-07-07T17:50:33.125Z,4.60
2018-07-07T17:53:03.025Z,3.40
2018-07-07T17:55:32.254Z,2.93
2018-07-07T17:58:07.383Z,3.00
2018-07-07T18:00:37.414Z,2.80
2018-07-07T18:03:05.787Z,2.40
2018-07-07T18:05:39.870Z,3.13
2018-07-07T18:08:12.672Z,3.50
2018-07-07T18:10:42.754Z,2.07
2018-07-07T18:13:15.428Z,2.30
2018-07-07T18:15:44.526Z,2.37
2018-07-07T18:18:14.427Z,1.80
2018-07-07T18:20:49.390Z,2.17
2018-07-07T18:23:18.330Z,2.30
2018-07-07T18:25:47.245Z,1.90
2018-07-07T18:28:15.841Z,3.00
2018-07-07T18:30:47.411Z,1.97
2018-07-07T18:33:23.663Z,1.93
2018-07-07T18:35:52.302Z,2.33
2018-07-07T18:38:22.489Z,1.50
2018-07-07T18:40:52.898Z,1.70
2018-07-07T18:43:21.718Z,2.20
2018-07-07T18:45:57.136Z,2.27
2018-07-07T18:48:26.801Z,2.90
2018-07-07T18:50:59.525Z,2.27
2018-07-07T18:53:32.654Z,1.83
2018-07-07T18:56:02.668Z,2.30
2018-07-07T18:58:33.653Z,2.23
2018-07-07T19:01:02.908Z,2.20
2018-07-07T19:03:31.921Z,2.03
2018-07-07T19:06:02.207Z,2.50
2018-07-07T19:08:33.174Z,2.90
2018-07-07T19:11:01.703Z,3.67
2018-07-07T19:13:31.790Z,2.20
2018-07-07T19:16:00.401Z,2.20
2018-07-07T19:18:28.977Z,2.50
2018-07-07T19:21:03.082Z,2.13
2018-07-07T19:23:37.074Z,3.37
2018-07-07T19:26:10.910Z,2.13
2018-07-07T19:28:39.361Z,2.10
2018-07-07T19:31:08.293Z,2.00
2018-07-07T19:33:41.855Z,2.43
2018-07-07T19:36:15.901Z,2.03
2018-07-07T19:38:44.121Z,2.17
2018-07-07T19:41:15.148Z,2.37
2018-07-07T19:43:44.318Z,2.70
2018-07-07T19:46:12.602Z,1.90
2018-07-07T19:48:41.304Z,2.17
2018-07-07T19:51:09.917Z,2.30
2018-07-07T19:53:39.245Z,6.40
2018-07-07T19:56:08.521Z,3.52
2018-07-07T19:58:37.364Z,1.95
2018-07-07T20:01:05.944Z,2.47
2018-07-07T20:03:34.510Z,1.90
2018-07-07T20:06:03.083Z,2.17
2018-07-07T20:08:31.640Z,3.00
2018-07-07T20:11:00.181Z,3.10
2018-07-07T20:13:28.442Z,2.70
2018-07-07T20:16:15.797Z,2.47
2018-07-07T20:19:14.959Z,2.42
2018-07-07T20:21:49.265Z,3.80
2018-07-07T20:24:20.729Z,3.47
2018-07-07T20:26:55.726Z,3.10
2018-07-07T20:29:25.081Z,3.20
2018-07-07T20:31:55.172Z,2.40
2018-07-07T20:34:25.965Z,2.63
2018-07-07T20:36:55.717Z,2.00
2018-07-07T20:39:24.837Z,2.93
2018-07-07T20:41:55.086Z,2.40
2018-07-07T20:44:23.914Z,2.60
2018-07-07T20:46:52.436Z,2.17
2018-07-07T20:49:21.594Z,2.80
2018-07-07T20:51:50.436Z,3.40
2018-07-07T20:54:19.551Z,2.90
2018-07-07T20:56:48.927Z,2.62
2018-07-07T20:59:19.105Z,3.25
2018-07-07T21:01:48.979Z,2.95
2018-07-07T21:04:17.637Z,2.83
2018-07-07T21:06:46.486Z,3.45
2018-07-07T21:09:15.378Z,2.60
2018-07-07T21:11:44.238Z,2.85
2018-07-07T21:14:12.749Z,3.08
2018-07-07T21:16:41.280Z,4.10
2018-07-07T21:19:09.763Z,4.10
2018-07-07T21:21:38.599Z,3.72
2018-07-07T21:24:09.287Z,4.17
2018-07-07T21:26:38.836Z,4.67
2018-07-07T21:29:07.960Z,4.20
2018-07-07T21:31:36.781Z,3.83
2018-07-07T21:34:06.594Z,4.83
2018-07-07T21:36:35.437Z,3.70
2018-07-07T21:39:05.254Z,4.90
2018-07-07T21:41:34.159Z,4.75
2018-07-07T21:44:02.719Z,4.12
2018-07-07T21:46:31.901Z,4.40
2018-07-07T21:49:02.440Z,5.20
2018-07-07T21:51:31.484Z,4.70
2018-07-07T21:54:00.064Z,4.45
2018-07-07T21:56:29.278Z,4.90
2018-07-07T21:59:03.277Z,5.47
2018-07-07T22:01:53.497Z,4.62
2018-07-07T22:04:27.985Z,5.10
2018-07-07T22:07:02.337Z,5.37
2018-07-07T22:09:33.230Z,4.10
2018-07-07T22:12:02.678Z,4.97
2018-07-07T22:14:31.728Z,5.12
2018-07-07T22:17:01.142Z,4.45
2018-07-07T22:19:30.337Z,4.22
2018-07-07T22:22:05.000Z,4.62
2018-07-07T22:24:33.594Z,5.45
2018-07-07T22:27:04.216Z,4.85
2018-07-07T22:29:33.378Z,4.03
2018-07-07T22:32:05.218Z,4.95
2018-07-07T22:34:36.962Z,4.60
2018-07-07T22:37:07.385Z,4.08
2018-07-07T22:39:40.056Z,4.40
2018-07-07T22:42:10.500Z,3.15
2018-07-07T22:44:39.955Z,3.30
2018-07-07T22:47:08.775Z,3.70
2018-07-07T22:49:37.706Z,3.98
2018-07-07T22:52:06.892Z,3.98
2018-07-07T22:54:35.919Z,3.30
2018-07-07T22:57:04.538Z,3.50
2018-07-07T22:59:33.809Z,3.20
2018-07-07T23:02:03.173Z,3.65
2018-07-07T23:04:31.686Z,3.60
2018-07-07T23:07:00.861Z,3.50
2018-07-07T23:09:29.420Z,3.72
2018-07-07T23:11:57.917Z,3.15
2018-07-07T23:14:27.386Z,3.00
2018-07-07T23:16:59.820Z,3.42
2018-07-07T23:19:28.333Z,2.70
2018-07-07T23:21:57.613Z,2.85
2018-07-07T23:24:26.465Z,2.83
2018-07-07T23:26:54.977Z,3.20
2018-07-07T23:29:23.873Z,3.77
2018-07-07T23:31:52.457Z,3.00
2018-07-07T23:34:22.266Z,3.67
2018-07-07T23:36:50.822Z,3.67
2018-07-07T23:39:20.593Z,2.90
2018-07-07T23:41:49.473Z,3.00
2018-07-07T23:44:21.205Z,3.22
2018-07-07T23:46:50.065Z,2.70
2018-07-07T23:49:19.257Z,3.30
2018-07-07T23:51:47.827Z,2.92
2018-07-07T23:54:17.560Z,2.58
2018-07-07T23:56:46.761Z,2.70
2018-07-07T23:59:15.633Z,3.05
